createdAt,value
2023-01-29T00:00:24.027Z,114.65
2023-01-29T00:02:53.789Z,114.93
2023-01-29T00:05:27.932Z,108.65
2023-01-29T00:07:58.006Z,119.50
2023-01-29T00:10:26.774Z,109.72
2023-01-29T00:12:54.494Z,105.97
2023-01-29T00:15:24.287Z,110.10
2023-01-29T00:17:54.252Z,120.93
2023-01-29T00:20:23.451Z,112.55
2023-01-29T00:22:51.379Z,116.00
2023-01-29T00:25:21.337Z,108.47
2023-01-29T00:27:49.454Z,112.07
2023-01-29T00:30:20.997Z,116.10
2023-01-29T00:32:50.371Z,117.55
2023-01-29T00:35:20.556Z,112.55
2023-01-29T00:37:48.137Z,96.57
2023-01-29T00:40:17.227Z,104.82
2023-01-29T00:43:06.595Z,99.38
2023-01-29T00:45:34.401Z,108.55
2023-01-29T00:48:03.449Z,110.07
2023-01-29T00:50:33.589Z,104.90
2023-01-29T00:53:01.947Z,104.60
2023-01-29T00:55:32.805Z,115.30
2023-01-29T00:58:01.063Z,104.55
2023-01-29T01:00:29.874Z,110.68
2023-01-29T01:03:06.871Z,106.88
2023-01-29T01:05:35.658Z,104.60
2023-01-29T01:10:47.137Z,107.80
2023-01-29T01:13:16.719Z,103.38
2023-01-29T01:15:45.105Z,105.03
2023-01-29T01:18:13.041Z,109.10
2023-01-29T01:20:42.995Z,104.78
2023-01-29T01:23:11.168Z,109.40
2023-01-29T01:25:39.036Z,108.15
2023-01-29T01:28:08.429Z,99.20
2023-01-29T01:30:36.112Z,103.88
2023-01-29T01:33:05.019Z,95.18
2023-01-29T01:35:32.318Z,90.43
2023-01-29T01:38:05.366Z,91.05
2023-01-29T01:40:34.076Z,97.75
2023-01-29T01:43:01.803Z,97.38
2023-01-29T01:45:34.735Z,94.72
2023-01-29T01:48:18.208Z,96.95
2023-01-29T01:51:04.165Z,90.07
2023-01-29T01:53:43.825Z,87.75
2023-01-29T01:56:26.307Z,97.33
2023-01-29T01:58:55.999Z,86.68
2023-01-29T02:01:28.250Z,87.32
2023-01-29T02:04:28.203Z,92.38
2023-01-29T02:07:13.927Z,95.03
2023-01-29T02:09:55.276Z,89.18
2023-01-29T02:12:23.532Z,90.30
2023-01-29T02:14:50.508Z,94.28
2023-01-29T02:17:19.044Z,84.57
2023-01-29T02:19:55.359Z,88.65
2023-01-29T02:22:55.278Z,92.43
2023-01-29T02:25:22.450Z,85.68
2023-01-29T02:27:49.624Z,80.15
2023-01-29T02:30:23.286Z,89.00
2023-01-29T02:33:02.614Z,85.10
2023-01-29T02:35:33.471Z,90.40
2023-01-29T02:38:06.904Z,94.38
2023-01-29T02:40:47.123Z,86.55
2023-01-29T02:43:36.091Z,92.15
2023-01-29T02:46:21.349Z,87.30
2023-01-29T02:49:15.188Z,87.22
2023-01-29T02:51:50.796Z,82.22
2023-01-29T02:54:22.113Z,82.18
2023-01-29T02:57:04.741Z,76.15
2023-01-29T02:59:43.149Z,84.45
2023-01-29T03:02:16.838Z,86.03
2023-01-29T03:04:50.946Z,76.50
2023-01-29T03:07:44.753Z,92.15
2023-01-29T03:10:24.342Z,86.55
2023-01-29T03:13:17.152Z,84.25
2023-01-29T03:15:47.126Z,84.60
2023-01-29T03:18:18.902Z,91.30
2023-01-29T03:20:50.855Z,83.72
2023-01-29T03:23:47.608Z,89.15
2023-01-29T03:26:37.131Z,84.22
2023-01-29T03:29:22.612Z,86.85
2023-01-29T03:32:05.856Z,91.35
2023-01-29T03:34:43.873Z,85.60
2023-01-29T03:37:24.361Z,84.95
2023-01-29T03:42:38.701Z,83.30
2023-01-29T03:45:23.269Z,85.25
2023-01-29T03:48:16.604Z,81.55
2023-01-29T03:50:58.777Z,86.50
2023-01-29T03:53:44.561Z,81.93
2023-01-29T03:56:39.975Z,91.47
2023-01-29T03:59:32.218Z,84.70
2023-01-29T04:02:01.070Z,89.60
2023-01-29T04:04:32.306Z,92.53
2023-01-29T04:07:05.207Z,89.65
2023-01-29T04:09:54.348Z,87.80
2023-01-29T04:12:24.815Z,87.50
2023-01-29T04:17:39.906Z,88.30
2023-01-29T04:20:07.625Z,83.07
2023-01-29T04:22:36.969Z,83.05
2023-01-29T04:25:08.960Z,82.40
2023-01-29T04:27:57.549Z,83.25
2023-01-29T04:30:44.060Z,75.88
2023-01-29T04:33:36.324Z,83.47
2023-01-29T04:36:15.108Z,77.93
2023-01-29T04:38:54.533Z,70.35
2023-01-29T04:41:27.490Z,75.57
2023-01-29T04:44:21.880Z,76.65
2023-01-29T04:46:54.711Z,76.65
2023-01-29T04:49:44.290Z,80.28
2023-01-29T04:52:25.199Z,79.45
2023-01-29T04:55:08.660Z,81.03
2023-01-29T04:57:50.200Z,73.53
2023-01-29T05:00:19.468Z,80.90
2023-01-29T05:02:46.756Z,78.53
2023-01-29T05:05:14.326Z,84.72
2023-01-29T05:07:41.836Z,82.70
2023-01-29T05:10:10.264Z,77.28
2023-01-29T05:12:38.072Z,79.50
2023-01-29T05:15:09.356Z,78.25
2023-01-29T05:17:36.452Z,79.43
2023-01-29T05:20:03.785Z,81.38
2023-01-29T05:22:30.870Z,77.88
2023-01-29T05:24:58.015Z,77.38
2023-01-29T05:27:49.348Z,78.03
2023-01-29T05:30:18.167Z,81.50
2023-01-29T05:32:45.680Z,77.88
2023-01-29T05:35:12.920Z,81.15
2023-01-29T05:37:40.065Z,78.38
2023-01-29T05:40:08.981Z,80.63
2023-01-29T05:42:36.106Z,85.13
2023-01-29T05:45:03.299Z,88.25
2023-01-29T05:47:30.581Z,84.03
2023-01-29T05:49:57.719Z,84.90
2023-01-29T05:52:25.251Z,80.53
2023-01-29T05:54:52.418Z,81.82
2023-01-29T05:57:19.580Z,81.00
2023-01-29T05:59:46.684Z,81.32
2023-01-29T06:02:14.927Z,88.75
2023-01-29T06:04:43.394Z,78.93
2023-01-29T06:07:12.668Z,92.05
2023-01-29T06:09:39.817Z,87.45
2023-01-29T06:12:08.080Z,92.80
2023-01-29T06:14:35.153Z,88.43
2023-01-29T06:17:02.223Z,96.18
2023-01-29T06:19:29.598Z,84.97
2023-01-29T06:22:00.401Z,78.53
2023-01-29T06:24:27.646Z,84.93
2023-01-29T06:26:54.763Z,81.88
2023-01-29T06:29:21.930Z,82.45
2023-01-29T06:31:50.726Z,92.20
2023-01-29T06:34:18.730Z,84.18
2023-01-29T06:36:47.485Z,90.72
2023-01-29T06:39:16.197Z,96.65
2023-01-29T06:41:43.405Z,87.10
2023-01-29T06:44:10.670Z,83.97
2023-01-29T06:46:37.832Z,78.03
2023-01-29T06:49:04.909Z,79.32
2023-01-29T06:51:32.217Z,80.00
2023-01-29T06:53:59.338Z,79.63
2023-01-29T06:56:26.465Z,91.15
2023-01-29T06:58:53.707Z,85.20
2023-01-29T07:01:34.773Z,90.38
2023-01-29T07:04:03.383Z,90.93
2023-01-29T07:06:30.908Z,96.95
2023-01-29T07:08:58.207Z,101.65
2023-01-29T07:11:26.408Z,102.03
2023-01-29T07:13:54.971Z,105.10
2023-01-29T07:16:22.249Z,113.80
2023-01-29T07:18:49.854Z,111.47
2023-01-29T07:21:17.296Z,100.97
2023-01-29T07:23:45.657Z,101.78
2023-01-29T07:26:13.185Z,104.93
2023-01-29T07:28:41.582Z,95.60
2023-01-29T07:31:10.132Z,87.97
2023-01-29T07:33:37.254Z,98.78
2023-01-29T07:36:09.034Z,94.35
2023-01-29T07:38:36.287Z,96.00
2023-01-29T07:41:03.614Z,84.38
2023-01-29T07:43:30.956Z,95.43
2023-01-29T07:46:02.069Z,91.22
2023-01-29T07:48:29.670Z,87.10
2023-01-29T07:51:00.510Z,97.50
2023-01-29T07:53:28.909Z,91.18
2023-01-29T07:55:57.376Z,89.97
2023-01-29T07:58:28.738Z,95.97
2023-01-29T08:00:56.043Z,90.05
2023-01-29T08:03:23.373Z,83.57
2023-01-29T08:05:56.547Z,85.68
2023-01-29T08:08:23.619Z,92.10
2023-01-29T08:10:51.749Z,90.20
2023-01-29T08:13:18.826Z,83.07
2023-01-29T08:15:47.344Z,86.07
2023-01-29T08:18:14.970Z,88.78
2023-01-29T08:20:43.205Z,87.13
2023-01-29T08:23:16.446Z,87.00
2023-01-29T08:25:44.193Z,84.72
2023-01-29T08:28:13.496Z,91.43
2023-01-29T08:30:43.008Z,93.07
2023-01-29T08:33:10.107Z,99.27
2023-01-29T08:35:37.609Z,93.90
2023-01-29T08:38:05.224Z,91.68
2023-01-29T08:40:33.795Z,88.68
2023-01-29T08:43:04.550Z,93.22
2023-01-29T08:45:36.206Z,101.45
2023-01-29T08:48:05.882Z,100.50
2023-01-29T08:50:35.180Z,101.22
2023-01-29T08:53:09.252Z,94.22
2023-01-29T08:55:37.817Z,106.00
2023-01-29T08:58:11.641Z,108.03
2023-01-29T09:00:38.897Z,92.72
2023-01-29T09:03:08.155Z,98.22
2023-01-29T09:05:41.102Z,95.72
2023-01-29T09:08:11.277Z,92.32
2023-01-29T09:10:50.888Z,92.43
2023-01-29T09:13:18.800Z,90.70
2023-01-29T09:15:46.456Z,93.25
2023-01-29T09:18:13.884Z,91.28
2023-01-29T09:20:47.502Z,91.20
2023-01-29T09:23:16.086Z,95.68
2023-01-29T09:25:46.099Z,89.80
2023-01-29T09:28:16.411Z,93.03
2023-01-29T09:30:44.760Z,91.18
2023-01-29T09:33:12.952Z,90.22
2023-01-29T09:35:43.830Z,87.72
2023-01-29T09:38:13.058Z,85.60
2023-01-29T09:41:01.061Z,85.20
2023-01-29T09:43:51.528Z,92.95
2023-01-29T09:46:36.431Z,93.13
2023-01-29T09:49:26.760Z,97.05
2023-01-29T09:52:14.449Z,97.57
2023-01-29T09:54:49.811Z,88.22
2023-01-29T09:57:21.463Z,92.80
2023-01-29T09:59:48.701Z,97.47
2023-01-29T10:02:46.634Z,91.82
2023-01-29T10:05:42.228Z,88.50
2023-01-29T10:08:20.627Z,90.55
2023-01-29T10:10:59.619Z,89.93
2023-01-29T10:14:07.456Z,90.32
2023-01-29T10:16:56.257Z,95.00
2023-01-29T10:19:47.979Z,99.38
2023-01-29T10:22:40.333Z,99.72
2023-01-29T10:25:11.559Z,100.47
2023-01-29T10:27:47.820Z,97.03
2023-01-29T10:30:35.923Z,87.05
2023-01-29T10:33:04.635Z,95.30
2023-01-29T10:35:38.869Z,97.45
2023-01-29T10:38:36.207Z,97.88
2023-01-29T10:41:11.929Z,87.93
2023-01-29T10:44:06.005Z,94.38
2023-01-29T10:46:54.304Z,94.03
2023-01-29T10:49:48.539Z,98.30
2023-01-29T10:52:29.449Z,93.90
2023-01-29T10:55:21.243Z,97.53
2023-01-29T10:58:09.870Z,98.80
2023-01-29T11:03:28.577Z,90.45
2023-01-29T11:06:20.633Z,87.57
2023-01-29T11:12:25.221Z,88.15
2023-01-29T11:14:54.715Z,83.43
2023-01-29T11:17:26.854Z,85.90
2023-01-29T11:20:09.414Z,83.70
2023-01-29T11:22:37.723Z,81.80
2023-01-29T11:25:33.610Z,91.40
2023-01-29T11:30:44.973Z,87.00
2023-01-29T11:33:25.827Z,99.97
2023-01-29T11:35:53.959Z,81.85
2023-01-29T11:38:32.112Z,86.78
2023-01-29T11:41:15.436Z,80.32
2023-01-29T11:43:44.289Z,85.30
2023-01-29T11:46:16.691Z,83.63
2023-01-29T11:48:46.874Z,88.68
2023-01-29T11:51:32.489Z,97.38
2023-01-29T11:54:07.929Z,100.57
2023-01-29T11:56:42.128Z,97.82
2023-01-29T11:59:45.185Z,100.97
2023-01-29T12:02:31.350Z,89.88
2023-01-29T12:05:04.244Z,88.57
2023-01-29T12:07:42.112Z,95.85
2023-01-29T12:13:26.431Z,102.32
2023-01-29T12:19:22.934Z,115.43
2023-01-29T12:22:27.339Z,111.78
2023-01-29T12:31:09.972Z,111.38
2023-01-29T12:33:49.883Z,125.20
2023-01-29T12:36:24.548Z,119.88
2023-01-29T12:39:01.154Z,113.18
2023-01-29T12:45:09.685Z,107.95
2023-01-29T12:47:46.795Z,105.88
2023-01-29T12:50:33.397Z,110.93
2023-01-29T12:53:11.465Z,103.35
2023-01-29T12:55:49.167Z,113.50
2023-01-29T12:58:20.274Z,108.43
2023-01-29T13:00:49.763Z,107.57
2023-01-29T13:03:33.559Z,118.72
2023-01-29T13:06:10.710Z,108.57
2023-01-29T13:08:47.773Z,107.03
2023-01-29T13:11:28.053Z,108.05
2023-01-29T13:17:15.792Z,102.35
2023-01-29T13:19:46.984Z,110.38
2023-01-29T13:22:29.423Z,108.53
2023-01-29T13:25:11.857Z,120.30
2023-01-29T13:27:41.138Z,117.05
2023-01-29T13:30:19.126Z,116.00
2023-01-29T13:32:53.593Z,118.07
2023-01-29T13:38:27.811Z,112.93
2023-01-29T13:44:44.726Z,130.90
2023-01-29T13:47:35.402Z,121.63
2023-01-29T13:59:56.099Z,126.80
2023-01-29T14:02:31.086Z,132.20
2023-01-29T14:05:38.629Z,130.35
2023-01-29T14:08:27.091Z,115.25
2023-01-29T14:14:50.101Z,120.72
2023-01-29T14:23:00.571Z,119.18
2023-01-29T14:25:35.765Z,115.60
2023-01-29T14:28:06.979Z,116.22
2023-01-29T14:30:44.242Z,110.68
2023-01-29T14:33:28.277Z,113.90
2023-01-29T14:36:09.210Z,121.68
2023-01-29T14:38:51.925Z,124.75
2023-01-29T14:44:49.971Z,122.88
2023-01-29T14:47:21.971Z,122.03
2023-01-29T14:52:48.133Z,123.50
2023-01-29T14:55:30.100Z,131.25
2023-01-29T14:57:58.757Z,128.95
2023-01-29T15:00:38.101Z,128.27
2023-01-29T15:09:46.847Z,139.63
2023-01-29T15:38:30.106Z,117.35
2023-01-29T15:43:37.864Z,116.82
2023-01-29T15:46:12.603Z,112.72
2023-01-29T15:48:41.420Z,106.50
2023-01-29T15:51:24.823Z,103.57
2023-01-29T15:54:16.075Z,105.00
2023-01-29T15:56:54.956Z,110.57
2023-01-29T15:59:44.440Z,107.53
2023-01-29T16:02:40.250Z,104.20
2023-01-29T16:05:18.077Z,101.18
2023-01-29T16:07:45.669Z,115.45
2023-01-29T16:10:31.853Z,131.48
2023-01-29T16:13:01.700Z,138.95
2023-01-29T16:15:41.318Z,118.05
2023-01-29T16:18:25.539Z,156.85
2023-01-29T16:21:04.469Z,149.15
2023-01-29T16:23:35.516Z,149.90
2023-01-29T16:26:36.146Z,151.23
2023-01-29T16:31:40.046Z,137.98
2023-01-29T16:34:24.355Z,138.68
2023-01-29T16:36:54.408Z,134.27
2023-01-29T16:39:35.274Z,138.77
2023-01-29T16:42:20.766Z,141.13
2023-01-29T16:44:53.536Z,127.40
2023-01-29T16:47:36.813Z,129.50
2023-01-29T16:50:43.300Z,139.43
2023-01-29T16:56:11.304Z,136.57
2023-01-29T16:58:39.561Z,126.43
2023-01-29T17:01:13.309Z,122.40
2023-01-29T17:03:40.809Z,121.82
2023-01-29T17:06:21.613Z,115.50
2023-01-29T17:08:50.032Z,114.45
2023-01-29T17:11:40.860Z,120.20
2023-01-29T17:14:13.722Z,130.82
2023-01-29T17:17:01.883Z,135.57
2023-01-29T17:19:33.081Z,135.43
2023-01-29T17:22:07.237Z,121.97
2023-01-29T17:24:37.905Z,134.93
2023-01-29T17:30:09.959Z,127.57
2023-01-29T17:32:44.552Z,124.18
2023-01-29T17:35:15.287Z,112.97
2023-01-29T17:38:00.640Z,125.18
2023-01-29T17:40:41.916Z,128.55
2023-01-29T17:43:23.672Z,122.47
2023-01-29T17:46:24.524Z,124.05
2023-01-29T17:57:42.597Z,118.40
2023-01-29T18:06:49.234Z,136.18
2023-01-29T18:12:18.659Z,174.13
2023-01-29T18:14:50.645Z,183.30
2023-01-29T18:17:25.801Z,191.73
2023-01-29T18:19:54.686Z,143.90
2023-01-29T18:25:12.438Z,151.57
2023-01-29T18:36:00.497Z,147.38
2023-01-29T18:44:28.047Z,131.13
2023-01-29T18:49:41.236Z,133.02
2023-01-29T18:52:09.825Z,140.20
2023-01-29T18:54:37.738Z,125.93
2023-01-29T18:57:14.459Z,128.85
2023-01-29T18:59:46.225Z,141.60
2023-01-29T19:02:15.233Z,138.40
2023-01-29T19:04:57.434Z,161.57
2023-01-29T19:13:01.316Z,183.60
2023-01-29T19:15:30.476Z,161.07
2023-01-29T19:18:01.293Z,157.77
2023-01-29T19:20:29.664Z,157.57
2023-01-29T19:22:58.270Z,146.02
2023-01-29T19:25:31.571Z,144.73
2023-01-29T19:28:09.521Z,142.63
2023-01-29T19:38:45.384Z,135.88
2023-01-29T19:43:55.633Z,134.15
2023-01-29T19:46:25.795Z,141.10
2023-01-29T19:48:58.077Z,152.88
2023-01-29T19:57:13.736Z,213.48
2023-01-29T20:00:07.402Z,177.43
2023-01-29T20:02:41.826Z,144.05
2023-01-29T20:07:58.509Z,180.90
2023-01-29T20:10:34.433Z,190.13
2023-01-29T20:15:46.254Z,182.68
2023-01-29T20:18:15.403Z,184.95
2023-01-29T20:40:23.258Z,149.23
2023-01-29T20:59:36.738Z,84.93
2023-01-29T21:04:51.153Z,60.38
2023-01-29T21:07:19.195Z,59.25
2023-01-29T21:15:15.939Z,58.47
2023-01-29T21:20:43.085Z,48.13
2023-01-29T21:23:37.686Z,62.55
2023-01-29T21:26:08.938Z,70.88
2023-01-29T21:28:40.293Z,97.07
2023-01-29T21:31:11.634Z,83.30
2023-01-29T21:33:41.238Z,86.53
2023-01-29T22:01:36.797Z,74.85
2023-01-29T22:20:45.634Z,83.20
2023-01-29T22:23:14.371Z,161.82
2023-01-29T22:25:44.623Z,126.57
2023-01-29T22:36:19.991Z,128.23
2023-01-29T22:41:35.222Z,119.25
2023-01-29T22:46:55.292Z,105.75
2023-01-29T22:49:49.887Z,110.22
2023-01-29T22:52:24.812Z,105.90
2023-01-29T22:54:54.548Z,96.72
2023-01-29T22:57:23.877Z,101.47
2023-01-29T22:59:53.924Z,99.30
2023-01-29T23:02:26.468Z,107.05
2023-01-29T23:07:42.651Z,124.57
2023-01-29T23:10:18.327Z,129.48
2023-01-29T23:12:50.837Z,168.18
2023-01-29T23:21:00.502Z,261.77
2023-01-29T23:29:14.745Z,221.65
2023-01-29T23:34:34.901Z,207.00
2023-01-29T23:42:33.027Z,146.95
2023-01-29T23:45:01.360Z,130.73
2023-01-29T23:47:30.002Z,118.93
2023-01-29T23:50:00.893Z,112.50
2023-01-29T23:52:28.905Z,123.28
2023-01-29T23:54:57.192Z,127.78
2023-01-29T23:57:25.316Z,130.88
2023-01-29T23:59:54.713Z,115.40
